createdAt,value
2018-11-05T00:04:46.853Z,12.9
2018-11-05T00:09:44.833Z,12.8
2018-11-05T00:14:42.767Z,12.8
2018-11-05T00:19:41.126Z,12.4
2018-11-05T00:24:39.369Z,12.7
2018-11-05T00:29:37.642Z,12.7
2018-11-05T00:34:35.692Z,12.7
2018-11-05T00:39:33.496Z,12.2
2018-11-05T00:44:31.325Z,12.6
2018-11-05T00:49:29.178Z,12.6
2018-11-05T00:54:27.433Z,12.5
2018-11-05T00:59:25.500Z,12.5
2018-11-05T01:04:23.704Z,12.4
2018-11-05T01:09:21.585Z,12
2018-11-05T01:14:19.488Z,12
2018-11-05T01:19:17.796Z,12.4
2018-11-05T01:24:15.615Z,11.9
2018-11-05T01:29:13.973Z,12.3
2018-11-05T01:34:11.776Z,12.2
2018-11-05T01:39:09.677Z,12.2
2018-11-05T01:44:07.585Z,12.2
2018-11-05T01:49:05.894Z,12.1
2018-11-05T01:54:04.215Z,12.1
2018-11-05T01:59:01.947Z,12.1
2018-11-05T02:04:00.259Z,12
2018-11-05T02:08:58.111Z,12
2018-11-05T02:13:56.387Z,12
2018-11-05T02:18:53.871Z,11.9
2018-11-05T02:23:52.203Z,11.9
2018-11-05T02:28:49.979Z,11.9
2018-11-05T02:33:47.812Z,11.8
2018-11-05T02:38:45.542Z,11.8
2018-11-05T02:43:43.408Z,11.8
2018-11-05T02:48:41.312Z,11.3
2018-11-05T02:53:39.238Z,11.7
2018-11-05T02:58:37.436Z,11.2
2018-11-05T03:03:35.609Z,11.6
2018-11-05T03:08:33.753Z,11.6
2018-11-05T03:13:31.611Z,11.5
2018-11-05T03:18:29.051Z,11.5
2018-11-05T03:23:27.213Z,11.4
2018-11-05T03:28:25.529Z,11.4
2018-11-05T03:33:23.874Z,10.9
2018-11-05T03:38:22.079Z,11.3
2018-11-05T03:43:20.466Z,11.3
2018-11-05T03:48:18.404Z,10.8
2018-11-05T03:53:16.302Z,10.8
2018-11-05T03:58:14.284Z,11.2
2018-11-05T04:03:12.519Z,11.1
2018-11-05T04:08:10.478Z,10.7
2018-11-05T04:13:08.856Z,10.7
2018-11-05T04:18:06.503Z,10.6
2018-11-05T04:23:04.581Z,10.6
2018-11-05T04:28:02.464Z,10.5
2018-11-05T04:33:00.500Z,10.4
2018-11-05T04:37:58.174Z,10.4
2018-11-05T04:42:56.019Z,10.4
2018-11-05T04:47:54.091Z,10.3
2018-11-05T04:52:52.147Z,10.7
2018-11-05T04:57:49.306Z,10.3
2018-11-05T05:02:47.580Z,10.3
2018-11-05T05:07:45.804Z,10.7
2018-11-05T05:12:44.138Z,10.2
2018-11-05T05:17:42.350Z,10.6
2018-11-05T05:22:40.274Z,10.1
2018-11-05T05:27:38.875Z,10.1
2018-11-05T05:32:37.156Z,10.5
2018-11-05T05:37:35.355Z,10.4
2018-11-05T05:42:32.882Z,10.2
2018-11-05T05:47:31.363Z,10.4
2018-11-05T05:52:29.710Z,9.9
2018-11-05T05:57:27.412Z,9.9
2018-11-05T06:02:24.773Z,9.8
2018-11-05T06:07:23.406Z,9.8
2018-11-05T06:12:21.261Z,9.8
2018-11-05T06:17:19.596Z,9.7
2018-11-05T06:22:17.978Z,9.7
2018-11-05T06:27:15.471Z,9.8
2018-11-05T06:32:13.921Z,9.6
2018-11-05T06:37:12.089Z,9.6
2018-11-05T06:42:10.245Z,9.6
2018-11-05T06:47:08.578Z,9.5
2018-11-05T06:52:06.563Z,10
2018-11-05T06:57:04.897Z,9.5
2018-11-05T07:02:02.799Z,9.6
2018-11-05T07:07:00.788Z,9.5
2018-11-05T07:11:58.987Z,9.9
2018-11-05T07:16:57.170Z,9.4
2018-11-05T07:21:54.997Z,9.4
2018-11-05T07:26:53.272Z,9.4
2018-11-05T07:31:51.635Z,9.4
2018-11-05T07:36:49.853Z,9.4
2018-11-05T07:41:47.672Z,9.6
2018-11-05T07:46:45.802Z,9.8
2018-11-05T07:51:43.936Z,9.4
2018-11-05T07:56:42.606Z,9.8
2018-11-05T08:01:40.643Z,9.8
2018-11-05T08:06:38.482Z,9.8
2018-11-05T08:11:36.939Z,9.4
2018-11-05T08:16:35.250Z,9.4
2018-11-05T08:21:33.658Z,9.4
2018-11-05T08:26:32.072Z,9.4
2018-11-05T08:31:30.289Z,9.4
2018-11-05T08:36:28.817Z,9.4
2018-11-05T08:46:30.793Z,9.5
2018-11-05T08:51:30.330Z,9.5
2018-11-05T08:56:29.438Z,9.6
2018-11-05T09:01:27.554Z,10
2018-11-05T09:06:26.467Z,9.6
2018-11-05T09:11:25.365Z,9.6
2018-11-05T09:16:24.766Z,9.5
2018-11-05T09:21:23.486Z,9.6
2018-11-05T09:26:21.782Z,9.7
2018-11-05T09:31:20.239Z,9.7
2018-11-05T09:36:18.671Z,9.8
2018-11-05T09:41:17.642Z,9.8
2018-11-05T09:46:15.835Z,10.3
2018-11-05T09:51:14.464Z,9.9
2018-11-05T09:56:13.118Z,9.8
2018-11-05T10:01:11.142Z,10
2018-11-05T10:06:09.479Z,10
2018-11-05T10:11:08.137Z,10.1
2018-11-05T10:16:06.609Z,10.6
2018-11-05T10:21:05.138Z,10.2
2018-11-05T10:26:03.640Z,10.2
2018-11-05T10:31:02.441Z,10.3
2018-11-05T10:36:00.805Z,10.4
2018-11-05T10:40:59.687Z,10.4
2018-11-05T10:45:59.022Z,10.4
2018-11-05T10:50:57.551Z,10.5
2018-11-05T10:55:56.441Z,10.6
2018-11-05T11:00:54.936Z,10.6
2018-11-05T11:05:53.315Z,10.7
2018-11-05T11:10:51.892Z,10.7
2018-11-05T11:15:50.461Z,10.8
2018-11-05T11:20:48.937Z,10.9
2018-11-05T11:25:47.447Z,11
2018-11-05T11:30:45.492Z,11
2018-11-05T11:35:43.673Z,11.1
2018-11-05T11:40:42.361Z,11.2
2018-11-05T11:45:40.655Z,11.3
2018-11-05T11:50:39.223Z,11.3
2018-11-05T11:55:37.158Z,11.4
2018-11-05T12:00:35.565Z,11.5
2018-11-05T12:05:33.598Z,11.6
2018-11-05T12:10:31.993Z,12
2018-11-05T12:15:30.447Z,12.1
2018-11-05T12:20:28.665Z,11.8
2018-11-05T12:25:27.474Z,12.3
2018-11-05T12:30:25.930Z,12.4
2018-11-05T12:35:24.095Z,12.5
2018-11-05T12:40:22.267Z,12.1
2018-11-05T12:45:20.937Z,12.6
2018-11-05T12:50:19.529Z,12.7
2018-11-05T12:55:17.927Z,12.8
2018-11-05T13:00:16.334Z,12.9
2018-11-05T13:05:23.685Z,13
2018-11-05T13:10:23.355Z,13.1
2018-11-05T13:15:22.084Z,13.1
2018-11-05T13:20:20.744Z,13.2
2018-11-05T13:25:18.803Z,13.3
2018-11-05T13:30:17.100Z,13.4
2018-11-05T13:35:15.691Z,13.4
2018-11-05T13:40:13.667Z,13.1
2018-11-05T13:45:11.778Z,13.1
2018-11-05T13:50:10.879Z,13.6
2018-11-05T13:55:09.463Z,13.7
2018-11-05T14:00:07.650Z,13.8
2018-11-05T14:05:05.639Z,13.8
2018-11-05T14:10:04.019Z,13.9
2018-11-05T14:15:01.913Z,13.9
2018-11-05T14:20:00.066Z,14
2018-11-05T14:24:58.522Z,14.1
2018-11-05T14:29:57.048Z,13.7
2018-11-05T14:34:56.118Z,14.2
2018-11-05T14:39:54.606Z,14.2
2018-11-05T14:44:52.569Z,14.3
2018-11-05T14:49:51.131Z,14.3
2018-11-05T14:54:49.566Z,14.4
2018-11-05T14:59:47.210Z,14
2018-11-05T15:04:45.883Z,14.4
2018-11-05T15:09:43.837Z,14
2018-11-05T15:14:41.933Z,14
2018-11-05T15:19:40.918Z,14.5
2018-11-05T15:24:40.253Z,14.5
2018-11-05T15:29:38.792Z,14.1
2018-11-05T15:34:37.294Z,14.1
2018-11-05T15:39:35.407Z,14.1
2018-11-05T15:44:33.824Z,14.5
2018-11-05T15:49:31.700Z,14.1
2018-11-05T15:54:30.490Z,14.5
2018-11-05T15:59:29.378Z,14.5
2018-11-05T16:04:27.838Z,14.5
2018-11-05T16:09:25.695Z,14.5
2018-11-05T16:14:23.857Z,14.5
2018-11-05T16:19:22.171Z,14.5
2018-11-05T16:24:20.420Z,14.5
2018-11-05T16:29:18.592Z,14.1
2018-11-05T16:34:16.752Z,14.5
2018-11-05T16:39:15.158Z,14.1
2018-11-05T16:44:13.860Z,14.5
2018-11-05T16:49:12.474Z,14.4
2018-11-05T16:54:10.664Z,14.4
2018-11-05T16:59:09.389Z,14.4
2018-11-05T17:04:07.280Z,14.4
2018-11-05T17:09:05.891Z,14.4
2018-11-05T17:14:04.493Z,14.4
2018-11-05T17:19:02.823Z,14.4
2018-11-05T17:24:01.166Z,14.3
2018-11-05T17:28:59.769Z,14.3
2018-11-05T17:33:57.546Z,14.3
2018-11-05T17:38:56.054Z,14.3
2018-11-05T17:43:54.483Z,13.8
2018-11-05T17:48:52.858Z,13.8
2018-11-05T17:53:51.043Z,13.8
2018-11-05T17:58:49.093Z,13.7
2018-11-05T18:03:47.893Z,13.7
2018-11-05T18:08:46.118Z,13.7
2018-11-05T18:13:44.268Z,13.6
2018-11-05T18:18:42.764Z,13.6
2018-11-05T18:23:40.942Z,13.6
2018-11-05T18:28:39.457Z,13.6
2018-11-05T18:33:38.171Z,13.6
2018-11-05T18:38:37.064Z,13.5
2018-11-05T18:43:35.289Z,13.7
2018-11-05T18:48:33.715Z,13.5
2018-11-05T18:53:32.364Z,13.9
2018-11-05T18:58:30.688Z,13.4
2018-11-05T19:03:29.097Z,13.3
2018-11-05T19:08:27.798Z,13.3
2018-11-05T19:13:25.953Z,13.3
2018-11-05T19:18:24.618Z,13.3
2018-11-05T19:23:23.223Z,13.6
2018-11-05T19:28:22.103Z,13.2
2018-11-05T19:33:20.733Z,13.2
2018-11-05T19:38:18.920Z,13.1
2018-11-05T19:43:17.707Z,13.5
2018-11-05T19:48:16.513Z,13.5
2018-11-05T19:53:14.590Z,13.4
2018-11-05T19:58:13.159Z,13.4
2018-11-05T20:03:11.653Z,13.4
2018-11-05T20:08:10.212Z,13.3
2018-11-05T20:13:08.724Z,13.3
2018-11-05T20:18:07.373Z,13.3
2018-11-05T20:23:06.623Z,13.3
2018-11-05T20:28:05.132Z,13.2
2018-11-05T20:33:03.765Z,13.2
2018-11-05T20:38:01.999Z,12.7
2018-11-05T20:43:00.498Z,12.7
2018-11-05T20:47:58.920Z,13.1
2018-11-05T20:52:56.619Z,12.6
2018-11-05T20:57:53.869Z,12.6
2018-11-05T21:02:52.440Z,13
2018-11-05T21:07:50.412Z,12.6
2018-11-05T21:12:48.216Z,12.5
2018-11-05T21:17:46.663Z,12.9
2018-11-05T21:22:45.486Z,12.8
2018-11-05T21:27:44.039Z,12.8
2018-11-05T21:32:42.517Z,12.4
2018-11-05T21:37:41.006Z,12.7
2018-11-05T21:42:39.390Z,12.7
2018-11-05T21:47:37.403Z,12.6
2018-11-05T21:52:35.839Z,12.6
2018-11-05T21:57:34.232Z,12.1
2018-11-05T22:02:32.377Z,12.1
2018-11-05T22:07:30.772Z,12.5
2018-11-05T22:12:28.971Z,12.5
2018-11-05T22:17:27.311Z,12.4
2018-11-05T22:22:25.738Z,12.4
2018-11-05T22:27:24.243Z,11.9
2018-11-05T22:32:21.829Z,12.4
2018-11-05T22:37:20.439Z,12.3
2018-11-05T22:42:18.495Z,11.9
2018-11-05T22:47:17.007Z,12.3
2018-11-05T22:52:14.521Z,12.2
2018-11-05T22:57:12.411Z,12.2
2018-11-05T23:02:10.547Z,11.7
2018-11-05T23:07:08.950Z,12.1
2018-11-05T23:12:07.009Z,11.7
2018-11-05T23:17:04.967Z,11.6
2018-11-05T23:22:03.354Z,11.6
2018-11-05T23:27:01.622Z,11.5
2018-11-05T23:31:59.612Z,11.5
2018-11-05T23:36:57.991Z,11.5
2018-11-05T23:41:56.561Z,11.9
2018-11-05T23:46:54.885Z,11.4
2018-11-05T23:51:52.859Z,11.4
2018-11-05T23:56:51.001Z,11.3
